Time;durP1;ratioP1;P1;durP2;ratioP2;P2;SDS_P1;SDS_P2;PMS_P1;PMS_P2;Temp;Humidity;BMP_temperature;BMP_pressure;BME280_temperature;BME280_humidity;BME280_pressure;Samples;Min_cycle;Max_cycle;Signal;HPM_P1;HPM_P2
2022/08/17 00:01:04;;;;;;;10.98;1.33;;;29.40;99.90;;;;;;5084787;22;20114;-51
2022/08/17 00:03:37;;;;;;;7.85;1.55;;;29.30;99.90;;;;;;5069441;28;20025;-51
2022/08/17 00:06:12;;;;;;;11.65;1.50;;;29.30;99.90;;;;;;5037672;28;20025;-53
2022/08/17 00:08:44;;;;;;;10.13;1.40;;;29.30;99.90;;;;;;5051271;28;20059;-50
2022/08/17 00:11:17;;;;;;;9.23;1.20;;;29.30;99.90;;;;;;5054305;28;20114;-50
2022/08/17 00:13:50;;;;;;;6.57;1.40;;;29.30;99.90;;;;;;5069966;28;20438;-54
2022/08/17 00:16:23;;;;;;;4.95;0.85;;;29.30;99.90;;;;;;5069815;28;20012;-50
2022/08/17 00:18:50;;;;;;;5.82;1.33;;;29.20;99.90;;;;;;5069849;28;20024;-52
2022/08/17 00:21:19;;;;;;;5.55;1.10;;;29.20;99.90;;;;;;5069866;28;20025;-50
2022/08/17 00:23:45;;;;;;;6.85;1.00;;;29.20;99.90;;;;;;5065582;28;20021;-50
2022/08/17 00:26:11;;;;;;;5.03;1.02;;;29.20;99.90;;;;;;5051714;28;20036;-51
2022/08/17 00:28:38;;;;;;;5.68;1.25;;;29.20;99.90;;;;;;5053419;28;20511;-51
2022/08/17 00:31:07;;;;;;;2.88;0.95;;;29.20;99.90;;;;;;5052300;28;20029;-49
2022/08/17 00:33:33;;;;;;;3.15;1.55;;;29.20;99.90;;;;;;5055510;28;20116;-49
2022/08/17 00:36:00;;;;;;;6.97;1.27;;;29.20;99.90;;;;;;5070680;28;20028;-52
2022/08/17 00:38:27;;;;;;;3.72;1.00;;;29.10;99.90;;;;;;5069539;28;20119;-50
2022/08/17 00:40:55;;;;;;;;;;;29.10;99.90;;;;;;5071009;28;20069;-52
2022/08/17 00:43:25;;;;;;;7.97;1.27;;;29.10;99.90;;;;;;5068344;28;19911;-52
2022/08/17 00:45:52;;;;;;;9.65;1.20;;;29.10;99.90;;;;;;5070983;28;20021;-50
2022/08/17 00:48:18;;;;;;;4.15;1.05;;;29.10;99.90;;;;;;5070948;28;20115;-50
2022/08/17 00:51:04;;;;;;;4.97;1.20;;;29.10;99.90;;;;;;5070785;28;20024;-50
2022/08/17 00:53:33;;;;;;;10.23;1.95;;;29.10;99.90;;;;;;5070416;28;20091;-50
2022/08/17 00:56:02;;;;;;;8.95;1.05;;;29.10;99.90;;;;;;5071433;28;20100;-49
2022/08/17 00:58:29;;;;;;;7.10;1.30;;;29.00;99.90;;;;;;5071370;28;20389;-50
2022/08/17 01:00:55;;;;;;;4.15;1.27;;;29.00;99.90;;;;;;5071758;28;20047;-50
2022/08/17 01:03:24;;;;;;;4.70;1.17;;;29.00;99.90;;;;;;5067938;28;20029;-51
2022/08/17 01:05:55;;;;;;;5.65;1.13;;;29.00;99.90;;;;;;5062167;28;20262;-49
2022/08/17 01:08:24;;;;;;;4.10;1.20;;;29.00;99.90;;;;;;5060709;28;20041;-50
2022/08/17 01:10:54;;;;;;;2.58;1.00;;;28.90;99.90;;;;;;5065024;28;20446;-50
2022/08/17 01:13:21;;;;;;;7.95;1.00;;;28.90;99.90;;;;;;5055830;28;20031;-50
2022/08/17 01:15:54;;;;;;;5.40;1.45;;;28.90;99.90;;;;;;5052529;28;20550;-50
2022/08/17 01:18:20;;;;;;;5.78;1.25;;;28.90;99.90;;;;;;5066507;28;20032;-50
2022/08/17 01:20:53;;;;;;;7.20;1.13;;;28.80;99.90;;;;;;5069065;28;20585;-51
2022/08/17 01:23:23;;;;;;;6.43;1.00;;;28.80;99.90;;;;;;5062587;28;20103;-49
2022/08/17 01:25:51;;;;;;;4.78;1.08;;;28.80;99.90;;;;;;5065537;28;20054;-50
2022/08/17 01:28:18;;;;;;;9.85;1.58;;;28.80;99.90;;;;;;5070801;28;20029;-50
2022/08/17 01:30:45;;;;;;;4.80;1.30;;;28.80;99.90;;;;;;5068506;28;20500;-48
2022/08/17 01:33:11;;;;;;;5.95;1.92;;;28.70;99.90;;;;;;5069829;28;20079;-49
2022/08/17 01:35:38;;;;;;;4.38;1.55;;;28.70;99.90;;;;;;5055871;28;20345;-53
2022/08/17 01:38:05;;;;;;;6.30;1.70;;;28.70;99.90;;;;;;5061947;28;20473;-50
2022/08/17 01:40:53;;;;;;;8.40;1.70;;;28.70;99.90;;;;;;5072841;28;20033;-48
2022/08/17 01:43:26;;;;;;;5.07;1.05;;;28.60;99.90;;;;;;5073789;28;20059;-52
2022/08/17 01:45:55;;;;;;;5.97;0.90;;;28.60;99.90;;;;;;5074735;28;20120;-50
2022/08/17 01:48:22;;;;;;;3.70;1.23;;;28.60;99.90;;;;;;5074782;28;20063;-51
2022/08/17 01:50:50;;;;;;;;;;;28.60;99.90;;;;;;5075166;28;20231;-54
2022/08/17 01:53:39;;;;;;;7.05;1.35;;;28.60;99.90;;;;;;5074583;28;19904;-51
2022/08/17 01:56:09;;;;;;;4.00;1.23;;;28.60;99.90;;;;;;5056491;28;20402;-53
2022/08/17 01:58:36;;;;;;;6.97;1.63;;;28.50;99.90;;;;;;5074311;28;20025;-50
2022/08/17 02:01:03;;;;;;;3.22;1.25;;;28.50;99.90;;;;;;5080375;22;20572;-51
2022/08/17 02:03:30;;;;;;;5.60;1.20;;;28.50;99.90;;;;;;5059999;28;20067;-51
2022/08/17 02:05:56;;;;;;;4.10;0.90;;;28.50;99.90;;;;;;5054169;28;20021;-51
2022/08/17 02:08:22;;;;;;;4.47;1.35;;;28.50;99.90;;;;;;5052690;28;20502;-51
2022/08/17 02:10:49;;;;;;;4.55;1.20;;;28.50;99.90;;;;;;5052587;28;20044;-51
2022/08/17 02:13:15;;;;;;;3.40;1.00;;;28.50;99.90;;;;;;5052361;28;20480;-51
2022/08/17 02:15:41;;;;;;;3.08;1.20;;;28.40;99.90;;;;;;5052327;28;20262;-51
2022/08/17 02:18:09;;;;;;;6.93;1.00;;;28.40;99.90;;;;;;5052603;28;20028;-50
2022/08/17 02:20:37;;;;;;;5.35;1.30;;;28.40;99.90;;;;;;5052462;28;20021;-51
2022/08/17 02:23:04;;;;;;;8.48;1.90;;;28.40;99.90;;;;;;5052325;28;20021;-51
2022/08/17 02:25:32;;;;;;;3.50;0.95;;;28.40;99.90;;;;;;5054254;28;20040;-51
2022/08/17 02:27:58;;;;;;;4.57;1.50;;;28.40;99.90;;;;;;5054374;28;20040;-51
2022/08/17 02:30:25;;;;;;;5.32;1.42;;;28.40;99.90;;;;;;5036340;28;20021;-51
2022/08/17 02:32:51;;;;;;;5.60;1.10;;;28.30;99.90;;;;;;5054415;28;20036;-51
2022/08/17 02:35:17;;;;;;;5.65;1.23;;;28.30;99.90;;;;;;5054086;28;20056;-51
2022/08/17 02:37:43;;;;;;;5.97;1.13;;;28.30;99.90;;;;;;5036206;28;20048;-49
2022/08/17 02:40:09;;;;;;;5.40;1.10;;;28.30;99.90;;;;;;5053902;28;20040;-50
2022/08/17 02:42:39;;;;;;;6.80;1.30;;;28.30;99.90;;;;;;5053974;28;20041;-50
2022/08/17 02:45:14;;;;;;;4.72;1.10;;;28.30;99.90;;;;;;5053715;28;20032;-51
2022/08/17 02:47:41;;;;;;;4.13;0.90;;;28.20;99.90;;;;;;5053672;28;20402;-51
2022/08/17 02:50:09;;;;;;;4.63;0.90;;;28.20;99.90;;;;;;5053794;28;20047;-51
2022/08/17 02:52:39;;;;;;;6.45;1.20;;;28.20;99.90;;;;;;5052915;28;20025;-51
2022/08/17 02:55:08;;;;;;;5.75;1.63;;;28.20;99.90;;;;;;5036286;28;20497;-51
2022/08/17 02:57:34;;;;;;;3.28;1.02;;;28.20;99.90;;;;;;5035606;28;20424;-52
2022/08/17 02:59:59;;;;;;;6.47;1.20;;;28.10;99.90;;;;;;5075377;22;20141;-47
2022/08/17 03:02:25;;;;;;;3.92;1.05;;;28.10;99.90;;;;;;5093953;28;20383;-47
2022/08/17 03:04:51;;;;;;;7.07;1.35;;;28.10;99.90;;;;;;5093660;28;20035;-47
2022/08/17 03:07:19;;;;;;;7.93;1.45;;;28.10;99.90;;;;;;5093494;28;20032;-48
2022/08/17 03:09:44;;;;;;;;;;;28.00;99.90;;;;;;5094037;28;20481;-47
2022/08/17 03:12:14;;;;;;;8.73;1.20;;;28.00;99.90;;;;;;5093596;28;19904;-49
2022/08/17 03:14:41;;;;;;;5.82;1.20;;;28.00;99.90;;;;;;5075586;28;20426;-48
2022/08/17 03:17:08;;;;;;;15.27;1.65;;;28.00;99.90;;;;;;5093383;28;20119;-49
2022/08/17 03:19:34;;;;;;;3.60;1.48;;;28.00;99.90;;;;;;5093418;28;20032;-48
2022/08/17 03:22:04;;;;;;;4.18;1.15;;;27.90;99.90;;;;;;5093205;28;20085;-48
2022/08/17 03:24:30;;;;;;;4.07;1.17;;;27.90;99.90;;;;;;5093305;28;20024;-48
2022/08/17 03:26:56;;;;;;;4.72;1.13;;;27.90;99.90;;;;;;5093300;28;20058;-48
2022/08/17 03:29:21;;;;;;;9.00;2.55;;;27.80;99.90;;;;;;5093421;28;20023;-48
2022/08/17 03:31:48;;;;;;;4.05;1.20;;;27.80;99.90;;;;;;5058237;28;20056;-48
2022/08/17 03:34:15;;;;;;;5.93;1.20;;;27.80;99.90;;;;;;5074964;28;20069;-48
2022/08/17 03:36:41;;;;;;;4.15;1.20;;;27.80;99.90;;;;;;5093254;28;20024;-48
2022/08/17 03:39:07;;;;;;;4.13;0.90;;;27.80;99.90;;;;;;5093089;28;20020;-49
2022/08/17 03:41:33;;;;;;;8.70;1.35;;;27.80;99.90;;;;;;5092820;28;20428;-48
2022/08/17 03:43:59;;;;;;;11.30;1.35;;;27.70;99.90;;;;;;5092918;28;20051;-48
2022/08/17 03:57:24;;;;;;;3.83;1.33;;;27.60;99.90;;;;;;5092949;28;20122;-48
2022/08/17 03:59:51;;;;;;;7.05;1.05;;;27.60;99.90;;;;;;5083233;22;20045;-50
2022/08/17 04:02:32;;;;;;;3.95;1.50;;;27.60;99.90;;;;;;5073018;28;20032;-50
2022/08/17 04:04:58;;;;;;;8.77;1.45;;;27.60;99.90;;;;;;5072606;28;20477;-50
2022/08/17 04:07:27;;;;;;;4.03;1.27;;;27.50;99.90;;;;;;5072206;28;20032;-50
2022/08/17 04:09:53;;;;;;;3.92;1.25;;;27.50;99.90;;;;;;5072203;28;20016;-50
2022/08/17 04:12:21;;;;;;;2.83;1.40;;;27.50;99.90;;;;;;5072150;28;20471;-50
2022/08/17 04:14:47;;;;;;;8.02;2.40;;;27.50;99.90;;;;;;5072181;28;20116;-50
2022/08/17 04:17:13;;;;;;;4.97;1.48;;;27.40;99.90;;;;;;5071970;28;20020;-51
2022/08/17 04:19:39;;;;;;;3.95;1.25;;;27.40;99.90;;;;;;5072010;28;20074;-50
2022/08/17 04:22:05;;;;;;;6.22;1.55;;;27.40;99.90;;;;;;5071989;28;20021;-51
2022/08/17 04:24:32;;;;;;;5.65;1.45;;;27.40;99.90;;;;;;5072120;28;20035;-50
2022/08/17 04:26:58;;;;;;;9.23;1.33;;;27.40;99.90;;;;;;5071850;28;20027;-50
2022/08/17 04:29:27;;;;;;;10.23;2.88;;;27.40;99.90;;;;;;5071762;28;20120;-50
2022/08/17 04:31:53;;;;;;;5.18;2.25;;;27.40;99.90;;;;;;5071759;28;20134;-51
2022/08/17 04:34:19;;;;;;;6.18;1.30;;;27.30;99.90;;;;;;5071822;28;20486;-50
2022/08/17 04:36:45;;;;;;;8.18;1.20;;;27.30;99.90;;;;;;5071824;28;20021;-50
2022/08/17 04:39:11;;;;;;;5.50;1.40;;;27.20;99.90;;;;;;5071543;28;20031;-50
2022/08/17 04:44:21;;;;;;;6.70;1.50;;;27.20;99.90;;;;;;5071840;28;20040;-50
2022/08/17 04:46:47;;;;;;;4.85;1.15;;;27.20;99.90;;;;;;5071391;28;20025;-51
2022/08/17 04:49:12;;;;;;;5.88;1.13;;;27.20;99.90;;;;;;5071494;28;20388;-49
2022/08/17 04:51:41;;;;;;;3.85;1.00;;;27.20;99.90;;;;;;5071458;28;20325;-49
2022/08/17 04:54:10;;;;;;;7.00;1.20;;;27.10;99.90;;;;;;5071428;28;20028;-50
2022/08/17 04:56:37;;;;;;;8.00;1.10;;;27.10;99.90;;;;;;5071397;28;20059;-50
2022/08/17 04:59:07;;;;;;;3.55;1.13;;;27.10;99.90;;;;;;5071580;28;20151;-50
2022/08/17 05:01:36;;;;;;;4.20;1.05;;;27.00;99.90;;;;;;5071393;28;20536;-50
2022/08/17 05:04:05;;;;;;;9.68;1.42;;;27.00;99.90;;;;;;5054053;28;20313;-50
2022/08/17 05:06:32;;;;;;;8.18;1.30;;;27.00;99.90;;;;;;5071526;28;20031;-50
2022/08/17 05:08:59;;;;;;;4.43;1.13;;;26.90;99.90;;;;;;5071186;28;20060;-50
2022/08/17 05:11:26;;;;;;;10.65;1.10;;;26.90;99.90;;;;;;5071365;28;20035;-50
2022/08/17 05:13:53;;;;;;;4.63;1.33;;;26.90;99.90;;;;;;5070876;28;20028;-50
2022/08/17 05:16:21;;;;;;;4.50;1.58;;;26.80;99.90;;;;;;5071186;28;20037;-50
2022/08/17 05:18:47;;;;;;;5.60;1.42;;;26.90;99.90;;;;;;5071288;28;20016;-51
2022/08/17 05:21:13;;;;;;;4.60;1.17;;;26.90;99.90;;;;;;5071041;28;20085;-50
2022/08/17 05:23:40;;;;;;;6.03;1.60;;;26.80;99.90;;;;;;5071088;28;20021;-50
2022/08/17 05:26:06;;;;;;;10.02;2.05;;;26.80;99.90;;;;;;5071370;28;20257;-50
2022/08/17 05:28:32;;;;;;;5.57;1.30;;;26.80;99.90;;;;;;5071331;28;20047;-50
2022/08/17 05:31:00;;;;;;;6.20;1.20;;;26.80;99.90;;;;;;5071110;28;20021;-51
2022/08/17 05:33:33;;;;;;;11.10;1.70;;;26.80;99.90;;;;;;5071061;28;20640;-50
2022/08/17 05:36:00;;;;;;;8.90;1.58;;;26.70;99.90;;;;;;5071091;28;20039;-50
2022/08/17 05:38:28;;;;;;;10.82;1.73;;;26.70;99.90;;;;;;5071114;28;20044;-50
2022/08/17 05:40:55;;;;;;;;;;;26.80;99.90;;;;;;5071437;28;20099;-51
2022/08/17 05:43:22;;;;;;;8.52;1.90;;;26.70;99.90;;;;;;5071179;28;20009;-50
2022/08/17 05:45:53;;;;;;;14.05;1.95;;;26.70;99.90;;;;;;5070830;28;20190;-50
2022/08/17 05:48:19;;;;;;;10.43;1.50;;;26.70;99.90;;;;;;5070753;28;20571;-51
2022/08/17 05:50:54;;;;;;;6.13;1.05;;;26.60;99.90;;;;;;5070810;28;20158;-50
2022/08/17 05:53:31;;;;;;;6.07;1.05;;;26.60;99.90;;;;;;5070932;28;20024;-50
2022/08/17 05:56:00;;;;;;;9.30;1.42;;;26.60;99.90;;;;;;5070794;28;20485;-51
2022/08/17 05:58:38;;;;;;;5.95;1.40;;;26.60;99.90;;;;;;5052843;28;20033;-51
2022/08/17 06:01:04;;;;;;;6.13;1.55;;;26.60;99.90;;;;;;5070729;28;20044;-50
2022/08/17 06:03:58;;;;;;;6.60;1.25;;;26.60;99.90;;;;;;5070776;28;20044;-51
2022/08/17 06:06:41;;;;;;;3.95;1.00;;;26.60;99.90;;;;;;5070709;28;20379;-50
2022/08/17 06:09:31;;;;;;;8.45;1.58;;;26.60;99.90;;;;;;5070738;28;20043;-50
2022/08/17 06:12:44;;;;;;;11.65;1.65;;;26.50;99.90;;;;;;5070610;28;20119;-50
2022/08/17 06:15:23;;;;;;;9.23;1.95;;;26.50;99.90;;;;;;4988868;28;20109;-51
2022/08/17 06:18:02;;;;;;;6.57;1.92;;;26.50;99.90;;;;;;4988965;28;20121;-51
2022/08/17 06:20:37;;;;;;;12.38;1.80;;;26.50;99.90;;;;;;5047058;28;20040;-50
2022/08/17 06:23:13;;;;;;;7.68;1.90;;;26.50;99.90;;;;;;5070440;28;20025;-50
2022/08/17 06:25:45;;;;;;;8.55;1.50;;;26.50;99.90;;;;;;5070664;28;20025;-50
2022/08/17 06:28:18;;;;;;;6.53;1.33;;;26.50;99.90;;;;;;5073701;28;20036;-50
2022/08/17 06:30:51;;;;;;;6.78;1.17;;;26.50;99.90;;;;;;5074144;28;20025;-51
2022/08/17 06:33:29;;;;;;;13.45;2.15;;;26.50;99.90;;;;;;5074019;28;20025;-51
2022/08/17 06:36:22;;;;;;;9.00;2.25;;;26.60;99.90;;;;;;5074022;28;20020;-51
2022/08/17 06:38:59;;;;;;;12.77;1.88;;;26.60;99.90;;;;;;5073908;28;20021;-50
2022/08/17 06:41:28;;;;;;;;;;;26.60;99.90;;;;;;5074429;28;20047;-50
2022/08/17 06:44:13;;;;;;;8.27;1.70;;;26.60;99.90;;;;;;5073663;28;19916;-51
2022/08/17 06:46:47;;;;;;;16.95;2.35;;;26.60;99.90;;;;;;5073957;28;20020;-51
2022/08/17 06:49:25;;;;;;;23.27;9.65;;;26.70;99.90;;;;;;5073572;28;20041;-51
2022/08/17 06:52:08;;;;;;;12.52;2.10;;;26.70;99.90;;;;;;5073487;28;20021;-51
2022/08/17 06:54:58;;;;;;;18.17;3.28;;;26.70;99.90;;;;;;5055528;28;20029;-51
2022/08/17 06:57:27;;;;;;;13.30;1.60;;;26.80;99.90;;;;;;5073595;28;20104;-51
2022/08/17 07:00:12;;;;;;;6.25;1.25;;;26.80;99.90;;;;;;5073365;28;20585;-51
2022/08/17 07:02:59;;;;;;;11.48;1.35;;;26.80;99.90;;;;;;5073398;28;20035;-50
2022/08/17 07:05:41;;;;;;;12.27;1.55;;;26.80;99.90;;;;;;5073219;28;20025;-51
2022/08/17 07:08:36;;;;;;;10.82;1.65;;;26.90;99.90;;;;;;5073434;28;20032;-51
2022/08/17 07:11:08;;;;;;;6.70;1.63;;;26.90;99.90;;;;;;5073158;28;20442;-51
2022/08/17 07:13:46;;;;;;;11.70;1.85;;;27.00;99.90;;;;;;5073299;28;20028;-50
2022/08/17 07:16:15;;;;;;;7.95;1.90;;;27.00;99.90;;;;;;5073284;28;20490;-50
2022/08/17 07:18:42;;;;;;;7.35;1.38;;;27.10;99.90;;;;;;5073445;28;20040;-51
2022/08/17 07:21:33;;;;;;;5.88;1.60;;;27.10;99.90;;;;;;5073364;28;20476;-51
2022/08/17 07:24:19;;;;;;;12.25;2.08;;;27.10;99.90;;;;;;5073043;28;20103;-51
2022/08/17 07:26:48;;;;;;;5.20;1.60;;;27.20;99.90;;;;;;5073026;28;20036;-51
2022/08/17 07:29:18;;;;;;;6.93;1.20;;;27.20;99.90;;;;;;5072819;28;20131;-51
2022/08/17 07:31:44;;;;;;;5.78;1.23;;;27.30;99.90;;;;;;5072812;28;20021;-51
2022/08/17 07:34:14;;;;;;;6.60;1.23;;;27.30;99.90;;;;;;5073113;28;20032;-51
2022/08/17 07:36:40;;;;;;;4.28;1.90;;;27.40;99.90;;;;;;5073062;28;20028;-51
2022/08/17 07:39:07;;;;;;;6.78;1.27;;;27.40;99.90;;;;;;5072447;28;20482;-51
2022/08/17 07:41:40;;;;;;;10.18;1.45;;;27.40;99.90;;;;;;5072554;28;20033;-51
2022/08/17 07:44:12;;;;;;;8.05;3.30;;;27.50;99.90;;;;;;5072810;28;20043;-51
2022/08/17 07:49:39;;;;;;;6.65;1.90;;;27.60;99.90;;;;;;5072794;28;20360;-51
2022/08/17 07:52:08;;;;;;;6.03;1.33;;;27.60;99.90;;;;;;5072596;28;20559;-51
2022/08/17 07:54:38;;;;;;;6.38;1.80;;;27.70;99.90;;;;;;5072511;28;20048;-51
2022/08/17 07:57:13;;;;;;;6.65;1.77;;;27.70;99.90;;;;;;5072500;28;20021;-50
2022/08/17 08:00:04;;;;;;;7.85;1.23;;;27.70;99.90;;;;;;5072178;28;20062;-50
2022/08/17 08:02:40;;;;;;;6.30;1.38;;;27.80;99.90;;;;;;5072078;28;20033;-51
2022/08/17 08:05:11;;;;;;;9.18;1.30;;;27.80;99.90;;;;;;5072439;28;20849;-51
2022/08/17 08:07:49;;;;;;;7.68;1.48;;;27.80;99.90;;;;;;5072217;28;20035;-51
2022/08/17 08:10:29;;;;;;;5.90;1.40;;;27.90;99.90;;;;;;5072284;28;20025;-51
2022/08/17 08:13:06;;;;;;;7.50;0.98;;;28.00;99.90;;;;;;5072024;28;20029;-51
2022/08/17 08:15:39;;;;;;;5.70;1.17;;;28.00;99.90;;;;;;5071968;28;20044;-51
2022/08/17 08:18:24;;;;;;;11.02;1.65;;;28.10;99.90;;;;;;5072021;28;20050;-51
2022/08/17 08:20:54;;;;;;;3.15;1.20;;;28.10;99.90;;;;;;5071990;28;20090;-51
2022/08/17 08:23:49;;;;;;;6.47;1.50;;;28.20;99.90;;;;;;5054106;28;20491;-51
2022/08/17 08:26:37;;;;;;;6.32;1.13;;;28.20;99.90;;;;;;5054084;28;20021;-52
2022/08/17 08:29:27;;;;;;;3.38;1.05;;;28.30;99.90;;;;;;5071411;28;20036;-52
2022/08/17 08:32:11;;;;;;;6.25;1.90;;;28.30;99.90;;;;;;5071824;28;20050;-51
2022/08/17 08:34:47;;;;;;;10.35;3.83;;;28.30;99.90;;;;;;5071866;28;20048;-51
2022/08/17 08:37:45;;;;;;;13.77;1.40;;;28.40;99.90;;;;;;5071738;28;20376;-51
2022/08/17 08:40:29;;;;;;;10.35;1.48;;;28.40;99.90;;;;;;5071665;28;20387;-50
2022/08/17 08:43:02;;;;;;;7.25;1.25;;;28.50;99.90;;;;;;5071619;28;20372;-51
2022/08/17 08:45:44;;;;;;;5.45;1.35;;;28.50;99.90;;;;;;5053618;28;20120;-51
2022/08/17 08:48:26;;;;;;;7.43;1.50;;;28.60;99.90;;;;;;5071488;28;20047;-51
2022/08/17 08:51:07;;;;;;;10.15;1.70;;;28.60;99.90;;;;;;5070920;28;20028;-51
2022/08/17 08:54:10;;;;;;;5.55;0.68;;;28.60;99.90;;;;;;5071238;28;20021;-52
2022/08/17 08:56:46;;;;;;;7.68;1.63;;;28.70;99.90;;;;;;5071256;28;20069;-50
2022/08/17 08:59:52;;;;;;;5.22;1.48;;;28.70;99.90;;;;;;5071306;28;20142;-51
2022/08/17 09:02:51;;;;;;;11.48;1.30;;;28.80;99.90;;;;;;5060111;28;20051;-51
2022/08/17 09:05:42;;;;;;;5.50;1.00;;;28.90;99.90;;;;;;5071568;28;20021;-51
2022/08/17 09:08:41;;;;;;;11.73;1.52;;;28.90;99.90;;;;;;5053183;28;20105;-51
2022/08/17 09:11:46;;;;;;;4.13;1.02;;;28.90;99.90;;;;;;5053435;28;20453;-51
2022/08/17 09:14:21;;;;;;;10.93;1.80;;;29.00;99.90;;;;;;5071202;28;20487;-51
2022/08/17 09:17:11;;;;;;;3.78;1.17;;;29.00;99.90;;;;;;5071227;28;20028;-52
2022/08/17 09:20:36;;;;;;;4.18;1.05;;;29.00;99.90;;;;;;5070814;28;20040;-51
2022/08/17 09:23:19;;;;;;;8.52;1.05;;;29.10;99.90;;;;;;4982305;28;20135;-51
2022/08/17 09:25:54;;;;;;;7.15;1.70;;;29.10;99.90;;;;;;4989382;28;20109;-51
2022/08/17 09:28:36;;;;;;;8.05;2.22;;;29.20;99.90;;;;;;5053425;28;20078;-51
2022/08/17 09:31:18;;;;;;;7.55;1.85;;;29.20;99.90;;;;;;5071028;28;20025;-51
2022/08/17 09:33:47;;;;;;;11.50;2.25;;;29.10;99.90;;;;;;5071132;28;20028;-50
2022/08/17 09:36:38;;;;;;;8.43;2.13;;;29.00;99.90;;;;;;5071042;28;20472;-51
2022/08/17 09:39:22;;;;;;;7.35;1.80;;;28.90;99.90;;;;;;5036872;28;20024;-51
2022/08/17 09:41:59;;;;;;;7.22;1.90;;;28.80;99.90;;;;;;5071013;28;20024;-51
2022/08/17 09:44:39;;;;;;;7.47;1.90;;;28.70;99.90;;;;;;5070900;28;20078;-51
2022/08/17 09:47:16;;;;;;;11.52;2.80;;;28.70;99.90;;;;;;5070773;28;20028;-50
2022/08/17 09:49:49;;;;;;;;;;;28.50;99.90;;;;;;5071414;28;20035;-51
2022/08/17 09:52:22;;;;;;;14.05;3.20;;;28.50;99.90;;;;;;5052875;28;19904;-51
2022/08/17 09:54:51;;;;;;;16.00;4.60;;;28.40;99.90;;;;;;5070954;28;20091;-51
2022/08/17 09:57:23;;;;;;;13.07;3.00;;;28.40;99.90;;;;;;5070620;28;20112;-51
2022/08/17 09:59:51;;;;;;;15.93;7.82;;;28.30;99.90;;;;;;5070625;28;20079;-51
2022/08/17 10:02:53;;;;;;;23.40;9.65;;;28.30;99.90;;;;;;5074411;28;20051;-50
2022/08/17 10:05:45;;;;;;;15.65;3.30;;;28.20;99.90;;;;;;5074774;28;20429;-51
2022/08/17 10:08:40;;;;;;;14.98;3.38;;;28.10;99.90;;;;;;5074343;28;20416;-51
2022/08/17 10:12:14;;;;;;;9.13;1.90;;;28.10;99.90;;;;;;5074452;28;20087;-51
2022/08/17 10:14:45;;;;;;;13.13;2.90;;;28.00;99.90;;;;;;5074268;28;20029;-51
2022/08/17 10:17:14;;;;;;;7.45;1.98;;;28.10;99.90;;;;;;5056237;28;20024;-51
2022/08/17 10:19:56;;;;;;;8.57;2.10;;;28.10;99.90;;;;;;5074199;28;20467;-51
2022/08/17 10:28:05;;;;;;;9.77;2.40;;;28.20;99.90;;;;;;5070571;28;20044;-51
2022/08/17 10:30:34;;;;;;;11.95;3.17;;;28.20;99.90;;;;;;5070867;28;20078;-51
2022/08/17 10:33:04;;;;;;;13.93;4.18;;;28.20;99.90;;;;;;5073910;28;20025;-51
2022/08/17 10:35:38;;;;;;;12.55;3.70;;;28.20;99.90;;;;;;5073928;28;20032;-50
2022/08/17 10:38:35;;;;;;;17.08;4.53;;;28.20;99.90;;;;;;5065852;28;20012;-50
2022/08/17 10:41:30;;;;;;;12.75;3.60;;;28.10;99.90;;;;;;5071643;28;20173;-49
2022/08/17 10:44:08;;;;;;;14.40;3.03;;;28.00;99.90;;;;;;5071019;28;20020;-50
2022/08/17 10:47:00;;;;;;;10.48;2.85;;;28.00;99.90;;;;;;5070357;28;20062;-50
2022/08/17 10:49:32;;;;;;;12.10;4.43;;;28.00;99.90;;;;;;5059867;28;20049;-50
2022/08/17 10:52:19;;;;;;;15.15;3.05;;;27.90;99.90;;;;;;5068781;28;20048;-50
2022/08/17 10:55:05;;;;;;;13.93;2.70;;;27.90;99.90;;;;;;5071062;28;20028;-50
2022/08/17 10:57:40;;;;;;;15.15;3.08;;;27.90;99.90;;;;;;5070265;28;20032;-51
2022/08/17 11:00:28;;;;;;;15.25;2.80;;;28.00;99.90;;;;;;5071858;28;20036;-50
2022/08/17 11:02:56;;;;;;;22.40;2.97;;;28.00;99.90;;;;;;5073731;28;20024;-52
2022/08/17 11:05:22;;;;;;;16.88;3.83;;;28.00;99.90;;;;;;5073354;28;20029;-51
2022/08/17 11:08:18;;;;;;;16.80;2.90;;;28.10;99.90;;;;;;5073086;28;20037;-51
2022/08/17 11:11:05;;;;;;;19.67;2.90;;;28.10;99.90;;;;;;5073419;28;20021;-51
2022/08/17 11:13:47;;;;;;;10.23;3.47;;;28.20;99.90;;;;;;5072564;28;20029;-50
2022/08/17 11:16:18;;;;;;;13.60;4.22;;;28.30;99.90;;;;;;5073084;28;20163;-50
2022/08/17 11:19:10;;;;;;;20.67;4.57;;;28.30;99.90;;;;;;5073020;28;20530;-51
2022/08/17 11:21:54;;;;;;;18.33;7.07;;;28.40;99.90;;;;;;5034768;28;20044;-51
2022/08/17 11:24:29;;;;;;;22.15;8.50;;;28.40;99.90;;;;;;5072973;28;20023;-51
2022/08/17 11:27:18;;;;;;;9.02;3.50;;;28.40;99.90;;;;;;5072999;28;20597;-51
2022/08/17 11:29:58;;;;;;;13.10;4.20;;;28.40;99.90;;;;;;5073119;28;20120;-51
2022/08/17 11:32:48;;;;;;;17.25;5.93;;;28.40;99.90;;;;;;5054970;28;20443;-51
2022/08/17 11:35:20;;;;;;;18.88;6.40;;;28.50;99.90;;;;;;5072640;28;20375;-51
2022/08/17 11:37:48;;;;;;;17.15;3.17;;;28.50;99.90;;;;;;5072424;28;20229;-51
2022/08/17 11:40:34;;;;;;;13.40;5.40;;;28.60;99.90;;;;;;5072760;28;20023;-51
2022/08/17 11:43:08;;;;;;;16.08;5.22;;;28.60;99.90;;;;;;5073010;28;20445;-51
2022/08/17 11:45:53;;;;;;;10.70;2.22;;;28.70;99.90;;;;;;5072616;28;20027;-51
2022/08/17 11:51:52;;;;;;;11.35;2.30;;;28.80;99.90;;;;;;5068696;28;20118;-51
2022/08/17 11:54:49;;;;;;;13.25;2.38;;;28.90;99.90;;;;;;5064061;28;20044;-52
2022/08/17 11:57:30;;;;;;;17.30;2.53;;;28.90;99.90;;;;;;5051866;28;20029;-52
2022/08/17 11:59:59;;;;;;;13.27;1.60;;;28.90;99.90;;;;;;5051509;28;20036;-50
2022/08/17 12:02:31;;;;;;;11.07;3.08;;;29.00;99.90;;;;;;5032908;28;20052;-51
2022/08/17 12:05:22;;;;;;;8.95;3.00;;;29.10;99.90;;;;;;5034546;28;20111;-50
2022/08/17 12:08:05;;;;;;;11.43;2.33;;;29.20;99.90;;;;;;5051977;28;20044;-50
2022/08/17 12:10:34;;;;;;;13.95;2.47;;;29.20;99.90;;;;;;5052239;28;20021;-51
2022/08/17 12:13:13;;;;;;;11.95;2.00;;;29.30;99.90;;;;;;5052360;28;20389;-51
2022/08/17 12:15:47;;;;;;;7.47;1.63;;;29.30;99.90;;;;;;5052305;28;20116;-48
2022/08/17 12:18:26;;;;;;;19.40;3.35;;;29.40;99.90;;;;;;5052014;28;20029;-51
2022/08/17 12:21:16;;;;;;;12.02;2.53;;;29.30;99.90;;;;;;5052175;28;20113;-51
2022/08/17 12:24:04;;;;;;;10.13;2.33;;;29.40;99.90;;;;;;5051465;28;20021;-52
2022/08/17 12:26:32;;;;;;;16.17;2.72;;;29.40;99.90;;;;;;5052123;28;20109;-52
2022/08/17 12:29:01;;;;;;;9.15;3.88;;;29.30;99.90;;;;;;5051960;28;20033;-49
2022/08/17 12:31:33;;;;;;;8.23;2.03;;;29.30;99.90;;;;;;5051915;28;20021;-50
2022/08/17 12:33:59;;;;;;;11.68;1.73;;;29.30;99.90;;;;;;5033944;28;20025;-50
2022/08/17 12:36:27;;;;;;;15.70;6.50;;;29.30;99.90;;;;;;5051811;28;20033;-50
2022/08/17 12:39:05;;;;;;;13.05;3.65;;;29.30;99.90;;;;;;5051725;28;20029;-50
2022/08/17 12:41:42;;;;;;;15.15;4.88;;;29.30;99.90;;;;;;5051930;28;20530;-50
2022/08/17 12:44:15;;;;;;;9.77;3.65;;;29.30;99.90;;;;;;5051728;28;20051;-51
2022/08/17 12:46:59;;;;;;;9.90;2.90;;;29.40;99.90;;;;;;5051562;28;20052;-50
2022/08/17 12:49:35;;;;;;;13.38;3.10;;;29.30;99.90;;;;;;5051556;28;20105;-50
2022/08/17 12:52:07;;;;;;;9.93;3.15;;;29.30;99.90;;;;;;5051816;28;20025;-51
2022/08/17 12:54:51;;;;;;;5.50;1.95;;;29.30;99.90;;;;;;5051686;28;20052;-51
2022/08/17 12:57:34;;;;;;;7.00;1.85;;;29.30;99.90;;;;;;5051330;28;20492;-51
2022/08/17 13:00:20;;;;;;;13.10;1.55;;;29.30;99.90;;;;;;5051194;28;20045;-51
2022/08/17 13:03:11;;;;;;;10.05;1.30;;;29.30;99.90;;;;;;5051414;28;20044;-51
2022/08/17 13:05:52;;;;;;;8.82;1.30;;;29.30;99.90;;;;;;5051324;28;20427;-51
2022/08/17 13:08:23;;;;;;;10.27;2.05;;;29.30;99.90;;;;;;5051157;28;20499;-51
2022/08/17 13:10:59;;;;;;;12.73;1.65;;;29.30;99.90;;;;;;5051339;28;20025;-51
2022/08/17 13:13:35;;;;;;;6.82;1.30;;;29.30;99.90;;;;;;5033341;28;20025;-51
2022/08/17 13:16:02;;;;;;;8.75;1.70;;;29.30;99.90;;;;;;5051312;28;20099;-52
2022/08/17 13:18:46;;;;;;;;;;;29.30;99.90;;;;;;5051610;28;20433;-52
2022/08/17 13:21:18;;;;;;;11.52;1.42;;;29.50;99.90;;;;;;5051135;28;19911;-51
2022/08/17 13:24:16;;;;;;;4.85;1.70;;;29.50;99.90;;;;;;5051081;28;20114;-51
2022/08/17 13:27:06;;;;;;;13.63;1.98;;;29.50;99.90;;;;;;5039199;28;20061;-51
2022/08/17 13:29:37;;;;;;;11.25;1.63;;;29.50;99.90;;;;;;5051334;28;20064;-51
2022/08/17 13:32:03;;;;;;;10.07;1.63;;;29.60;99.90;;;;;;5051084;28;20028;-51
2022/08/17 13:34:34;;;;;;;11.98;1.60;;;29.60;99.90;;;;;;5051089;28;20025;-51
2022/08/17 13:37:29;;;;;;;14.60;2.10;;;29.60;99.90;;;;;;5054353;28;20017;-52
2022/08/17 13:40:09;;;;;;;9.88;1.52;;;29.60;99.90;;;;;;5037379;28;20125;-52
2022/08/17 13:42:41;;;;;;;5.70;1.42;;;29.70;99.90;;;;;;5055233;28;20059;-51
2022/08/17 13:45:30;;;;;;;9.77;1.52;;;29.70;99.90;;;;;;5055384;28;20396;-51
2022/08/17 13:48:08;;;;;;;12.82;1.92;;;29.70;99.90;;;;;;5046617;28;20063;-51
2022/08/17 13:50:37;;;;;;;9.80;1.42;;;29.70;99.90;;;;;;5037241;28;20380;-52